Time;durP1;ratioP1;P1;durP2;ratioP2;P2;SDS_P1;SDS_P2;PMS_P1;PMS_P2;Temp;Humidity;BMP_temperature;BMP_pressure;BME280_temperature;BME280_humidity;BME280_pressure;Samples;Min_cycle;Max_cycle;Signal;HPM_P1;HPM_P2
2021/01/15 00:02:02;;;;;;;;;;;;;;;;;;5053681;28;19931;-64
2021/01/15 00:04:28;;;;;;;;;;;;;;;;;;5058951;28;19911;-65
2021/01/15 00:06:54;;;;;;;;;;;;;;;;;;5053745;28;20001;-65
2021/01/15 00:09:20;;;;;;;;;;;;;;;;;;5049502;28;19916;-65
2021/01/15 00:11:46;;;;;;;;;;;;;;;;;;5052832;28;19913;-65
2021/01/15 00:14:12;;;;;;;;;;;;;;;;;;5053756;28;19931;-66
2021/01/15 00:16:38;;;;;;;;;;;;;;;;;;5055758;28;20369;-67
2021/01/15 00:19:04;;;;;;;;;;;;;;;;;;5048766;28;19923;-65
2021/01/15 00:21:29;;;;;;;;;;;;;;;;;;5054133;28;19909;-65
2021/01/15 00:23:55;;;;;;;;;;;;;;;;;;5054600;28;19967;-65
2021/01/15 00:26:21;;;;;;;;;;;;;;;;;;5053400;28;19999;-65
2021/01/15 00:28:47;;;;;;;;;;;;;;;;;;5049983;28;19966;-65
2021/01/15 00:31:13;;;;;;;;;;;;;;;;;;5048727;28;20360;-65
2021/01/15 00:33:39;;;;;;;;;;;;;;;;;;5053471;28;19951;-67
2021/01/15 00:36:05;;;;;;;;;;;;;;;;;;5054875;28;19913;-66
2021/01/15 00:38:31;;;;;;;;;;;;;;;;;;5051353;28;19905;-65
2021/01/15 00:40:57;;;;;;;;;;;;;;;;;;5053009;28;19909;-65
2021/01/15 00:43:23;;;;;;;;;;;;;;;;;;5051571;28;19913;-65
2021/01/15 00:45:49;;;;;;;;;;;;;;;;;;5053253;28;19905;-65
2021/01/15 00:48:15;;;;;;;;;;;;;;;;;;5042131;28;19935;-65
2021/01/15 00:50:41;;;;;;;;;;;;;;;;;;5054932;28;19916;-64
2021/01/15 00:53:06;;;;;;;;;;;;;;;;;;5052366;28;19932;-65
2021/01/15 00:55:32;;;;;;;;;;;;;;;;;;5054098;28;20008;-65
2021/01/15 00:57:58;;;;;;;;;;;;;;;;;;5052364;28;19908;-66
2021/01/15 01:00:24;;;;;;;;;;;;;;;;;;5052796;28;19915;-65
2021/01/15 01:02:50;;;;;;;;;;;;;;;;;;5052945;28;19912;-65
2021/01/15 01:05:20;;;;;;;;;;;;;;;;;;5050485;28;19974;-65
2021/01/15 01:07:47;;;;;;;;;;;;;;;;;;5052412;28;19963;-65
2021/01/15 01:10:13;;;;;;;;;;;;;;;;;;5054250;28;19951;-66
2021/01/15 01:12:39;;;;;;;;;;;;;;;;;;5049191;28;19956;-65
2021/01/15 01:15:05;;;;;;;;;;;;;;;;;;5054353;28;19967;-65
2021/01/15 01:17:31;;;;;;;;;;;;;;;;;;5051975;28;20000;-66
2021/01/15 01:19:57;;;;;;;;;;;;;;;;;;5054264;28;19959;-65
2021/01/15 01:22:23;;;;;;;;;;;;;;;;;;5052091;28;19944;-68
2021/01/15 01:24:49;;;;;;;;;;;;;;;;;;5053355;28;19908;-66
2021/01/15 01:27:15;;;;;;;;;;;;;;;;;;5051970;28;19908;-67
2021/01/15 01:29:41;;;;;;;;;;;;;;;;;;5054044;28;19965;-67
2021/01/15 01:32:07;;;;;;;;;;;;;;;;;;5040332;28;19908;-68
2021/01/15 01:34:32;;;;;;;;;;;;;;;;;;5049701;28;19905;-65
2021/01/15 01:36:58;;;;;;;;;;;;;;;;;;5051851;28;19916;-69
2021/01/15 01:39:24;;;;;;;;;;;;;;;;;;5053270;28;19995;-69
2021/01/15 01:41:50;;;;;;;;;;;;;;;;;;5049513;28;19995;-70
2021/01/15 01:44:16;;;;;;;;;;;;;;;;;;5048738;28;19928;-70
2021/01/15 01:46:42;;;;;;;;;;;;;;;;;;5052190;28;19932;-72
2021/01/15 01:49:08;;;;;;;;;;;;;;;;;;5053621;28;19909;-67
2021/01/15 01:51:34;;;;;;;;;;;;;;;;;;5051275;28;19924;-71
2021/01/15 01:54:00;;;;;;;;;;;;;;;;;;5051405;28;19912;-71
2021/01/15 01:56:26;;;;;;;;;;;;;;;;;;5052691;28;19917;-70
2021/01/15 01:58:52;;;;;;;;;;;;;;;;;;5051039;28;19931;-70
2021/01/15 02:01:18;;;;;;;;;;;;;;;;;;5050633;28;19909;-70
2021/01/15 02:03:43;;;;;;;;;;;;;;;;;;5051792;28;19958;-70
2021/01/15 02:06:09;;;;;;;;;;;;;;;;;;5053580;28;19908;-72
2021/01/15 02:08:35;;;;;;;;;;;;;;;;;;5051110;28;19974;-71
2021/01/15 02:11:01;;;;;;;;;;;;;;;;;;5053174;28;19913;-70
2021/01/15 02:13:27;;;;;;;;;;;;;;;;;;5051337;28;20292;-72
2021/01/15 02:15:53;;;;;;;;;;;;;;;;;;5053544;28;19916;-71
2021/01/15 02:18:19;;;;;;;;;;;;;;;;;;5050713;28;20016;-68
2021/01/15 02:20:45;;;;;;;;;;;;;;;;;;5053461;28;19912;-71
2021/01/15 02:23:11;;;;;;;;;;;;;;;;;;5050991;28;19931;-72
2021/01/15 02:25:37;;;;;;;;;;;;;;;;;;5053184;28;19912;-70
2021/01/15 02:28:03;;;;;;;;;;;;;;;;;;5051042;28;19909;-70
2021/01/15 02:30:29;;;;;;;;;;;;;;;;;;5053259;28;19905;-72
2021/01/15 02:32:55;;;;;;;;;;;;;;;;;;5044841;28;19938;-72
2021/01/15 02:35:21;;;;;;;;;;;;;;;;;;5043600;28;19912;-72
2021/01/15 02:37:47;;;;;;;;;;;;;;;;;;5044950;28;20013;-72
2021/01/15 02:40:13;;;;;;;;;;;;;;;;;;5051891;28;19909;-71
2021/01/15 02:42:39;;;;;;;;;;;;;;;;;;5050957;28;19908;-67
2021/01/15 02:45:05;;;;;;;;;;;;;;;;;;5052236;28;19909;-71
2021/01/15 02:47:30;;;;;;;;;;;;;;;;;;5047386;28;19958;-69
2021/01/15 02:49:56;;;;;;;;;;;;;;;;;;5051929;28;19938;-70
2021/01/15 02:52:22;;;;;;;;;;;;;;;;;;5050896;28;19917;-68
2021/01/15 02:54:48;;;;;;;;;;;;;;;;;;5051558;28;19912;-71
2021/01/15 02:57:15;;;;;;;;;;;;;;;;;;5051039;28;20023;-69
2021/01/15 02:59:41;;;;;;;;;;;;;;;;;;5050482;28;19991;-71
2021/01/15 03:02:07;;;;;;;;;;;;;;;;;;5048039;28;19912;-67
2021/01/15 03:04:33;;;;;;;;;;;;;;;;;;5050734;28;19930;-71
2021/01/15 03:06:59;;;;;;;;;;;;;;;;;;5050922;28;19978;-71
2021/01/15 03:09:24;;;;;;;;;;;;;;;;;;5052329;28;19912;-71
2021/01/15 03:11:50;;;;;;;;;;;;;;;;;;5050739;28;19948;-72
2021/01/15 03:14:16;;;;;;;;;;;;;;;;;;5050785;28;19915;-71
2021/01/15 03:16:42;;;;;;;;;;;;;;;;;;5050761;28;19925;-69
2021/01/15 03:19:08;;;;;;;;;;;;;;;;;;5052111;28;19913;-71
2021/01/15 03:21:34;;;;;;;;;;;;;;;;;;5050237;28;19916;-72
2021/01/15 03:24:00;;;;;;;;;;;;;;;;;;5052528;28;20000;-69
2021/01/15 03:26:26;;;;;;;;;;;;;;;;;;5051573;28;19905;-69
2021/01/15 03:28:52;;;;;;;;;;;;;;;;;;5051814;28;19958;-71
2021/01/15 03:31:18;;;;;;;;;;;;;;;;;;5053979;28;19909;-72
2021/01/15 03:33:44;;;;;;;;;;;;;;;;;;5046625;28;20022;-67
2021/01/15 03:36:10;;;;;;;;;;;;;;;;;;5045335;28;19917;-70
2021/01/15 03:38:36;;;;;;;;;;;;;;;;;;5041336;28;19913;-71
2021/01/15 03:41:02;;;;;;;;;;;;;;;;;;5049522;28;19915;-65
2021/01/15 03:43:28;;;;;;;;;;;;;;;;;;5050571;28;19931;-71
2021/01/15 03:45:53;;;;;;;;;;;;;;;;;;5052252;28;19909;-71
2021/01/15 03:48:21;;;;;;;;;;;;;;;;;;5053374;28;19913;-71
2021/01/15 03:50:47;;;;;;;;;;;;;;;;;;5055944;28;20774;-71
2021/01/15 03:53:13;;;;;;;;;;;;;;;;;;5046329;28;19995;-71
2021/01/15 03:55:38;;;;;;;;;;;;;;;;;;5056083;28;19924;-71
2021/01/15 03:58:04;;;;;;;;;;;;;;;;;;5053899;28;20003;-71
2021/01/15 04:00:30;;;;;;;;;;;;;;;;;;5055573;28;20004;-71
2021/01/15 04:02:56;;;;;;;;;;;;;;;;;;5053910;28;19915;-70
2021/01/15 04:05:22;;;;;;;;;;;;;;;;;;5049419;28;19932;-70
2021/01/15 04:07:48;;;;;;;;;;;;;;;;;;5047450;28;19912;-65
2021/01/15 04:10:14;;;;;;;;;;;;;;;;;;5054651;28;20003;-65
2021/01/15 04:12:40;;;;;;;;;;;;;;;;;;5053204;28;19909;-65
2021/01/15 04:15:06;;;;;;;;;;;;;;;;;;5055542;28;20399;-65
2021/01/15 04:17:32;;;;;;;;;;;;;;;;;;5053573;28;20037;-64
2021/01/15 04:19:58;;;;;;;;;;;;;;;;;;5053505;28;19983;-66
2021/01/15 04:22:24;;;;;;;;;;;;;;;;;;5053738;28;19913;-65
2021/01/15 04:24:50;;;;;;;;;;;;;;;;;;5055130;28;19909;-65
2021/01/15 04:27:15;;;;;;;;;;;;;;;;;;5051337;28;19915;-66
2021/01/15 04:29:42;;;;;;;;;;;;;;;;;;5053787;28;19909;-65
2021/01/15 04:32:08;;;;;;;;;;;;;;;;;;5052844;28;19909;-65
2021/01/15 04:34:33;;;;;;;;;;;;;;;;;;5054462;28;19996;-65
2021/01/15 04:36:59;;;;;;;;;;;;;;;;;;5052551;28;19917;-65
2021/01/15 04:39:25;;;;;;;;;;;;;;;;;;5046768;28;19915;-66
2021/01/15 04:41:51;;;;;;;;;;;;;;;;;;5045906;28;19920;-65
2021/01/15 04:44:17;;;;;;;;;;;;;;;;;;5054632;28;19912;-64
2021/01/15 04:46:43;;;;;;;;;;;;;;;;;;5053278;28;19909;-65
2021/01/15 04:49:09;;;;;;;;;;;;;;;;;;5052648;28;19913;-64
2021/01/15 04:51:35;;;;;;;;;;;;;;;;;;5053353;28;19905;-64
2021/01/15 04:54:01;;;;;;;;;;;;;;;;;;5051997;28;19967;-63
2021/01/15 04:56:27;;;;;;;;;;;;;;;;;;5045143;28;20369;-64
2021/01/15 04:58:53;;;;;;;;;;;;;;;;;;5054330;28;19908;-64
2021/01/15 05:01:19;;;;;;;;;;;;;;;;;;5053516;28;19912;-64
2021/01/15 05:03:45;;;;;;;;;;;;;;;;;;5053484;28;20065;-64
2021/01/15 05:06:11;;;;;;;;;;;;;;;;;;5060859;28;19909;-65
2021/01/15 05:08:37;;;;;;;;;;;;;;;;;;5052749;28;19916;-64
2021/01/15 05:11:03;;;;;;;;;;;;;;;;;;5051844;28;19909;-64
2021/01/15 05:13:29;;;;;;;;;;;;;;;;;;5052715;28;19962;-64
2021/01/15 05:15:55;;;;;;;;;;;;;;;;;;5052411;28;20444;-63
2021/01/15 05:18:21;;;;;;;;;;;;;;;;;;5051961;28;19920;-67
2021/01/15 05:20:47;;;;;;;;;;;;;;;;;;5053947;28;20365;-64
2021/01/15 05:23:12;;;;;;;;;;;;;;;;;;5052579;28;19908;-63
2021/01/15 05:25:38;;;;;;;;;;;;;;;;;;5062056;28;19911;-63
2021/01/15 05:28:04;;;;;;;;;;;;;;;;;;5052614;28;19919;-64
2021/01/15 05:30:30;;;;;;;;;;;;;;;;;;5053709;28;19969;-67
2021/01/15 05:32:56;;;;;;;;;;;;;;;;;;5050587;28;19908;-65
2021/01/15 05:35:22;;;;;;;;;;;;;;;;;;5054043;28;19917;-64
2021/01/15 05:37:48;;;;;;;;;;;;;;;;;;5052305;28;19909;-64
2021/01/15 05:40:14;;;;;;;;;;;;;;;;;;5049072;28;19978;-66
2021/01/15 05:42:40;;;;;;;;;;;;;;;;;;5043448;28;19930;-70
2021/01/15 05:45:06;;;;;;;;;;;;;;;;;;5052891;28;19992;-67
2021/01/15 05:47:32;;;;;;;;;;;;;;;;;;5051587;28;19909;-66
2021/01/15 05:49:58;;;;;;;;;;;;;;;;;;5045807;28;20011;-68
2021/01/15 05:52:24;;;;;;;;;;;;;;;;;;5049839;28;19982;-68
2021/01/15 05:54:50;;;;;;;;;;;;;;;;;;5043485;28;19971;-71
2021/01/15 05:57:15;;;;;;;;;;;;;;;;;;5049876;28;19912;-70
2021/01/15 05:59:42;;;;;;;;;;;;;;;;;;5053628;28;19913;-71
2021/01/15 06:02:08;;;;;;;;;;;;;;;;;;5050424;28;20428;-68
2021/01/15 06:04:34;;;;;;;;;;;;;;;;;;5053384;28;19913;-70
2021/01/15 06:06:59;;;;;;;;;;;;;;;;;;5047803;28;19916;-67
2021/01/15 06:12:10;;;;;;;;;;;;;;;;;;5047911;28;20030;-71
2021/01/15 06:17:20;;;;;;;;;;;;;;;;;;5045118;28;19931;-66
2021/01/15 06:19:46;;;;;;;;;;;;;;;;;;5051418;28;19912;-68
2021/01/15 06:22:12;;;;;;;;;;;;;;;;;;5051020;28;19936;-67
2021/01/15 06:24:38;;;;;;;;;;;;;;;;;;5053134;28;19967;-71
2021/01/15 06:27:05;;;;;;;;;;;;;;;;;;5051186;28;19912;-71
2021/01/15 06:29:31;;;;;;;;;;;;;;;;;;5053418;28;19958;-71
2021/01/15 06:31:57;;;;;;;;;;;;;;;;;;5050506;28;20319;-70
2021/01/15 06:34:23;;;;;;;;;;;;;;;;;;5052861;28;19932;-70
2021/01/15 06:36:49;;;;;;;;;;;;;;;;;;5050926;28;19975;-71
2021/01/15 06:39:15;;;;;;;;;;;;;;;;;;5052554;28;19908;-70
2021/01/15 06:41:44;;;;;;;;;;;;;;;;;;5046730;28;20269;-71
2021/01/15 06:44:10;;;;;;;;;;;;;;;;;;5036828;28;19908;-68
2021/01/15 06:46:36;;;;;;;;;;;;;;;;;;5040898;28;19916;-71
2021/01/15 06:49:02;;;;;;;;;;;;;;;;;;5044964;28;20369;-71
2021/01/15 06:51:28;;;;;;;;;;;;;;;;;;5049020;28;19909;-71
2021/01/15 06:53:53;;;;;;;;;;;;;;;;;;5050662;28;19947;-69
2021/01/15 06:56:19;;;;;;;;;;;;;;;;;;5043352;28;19916;-69
2021/01/15 06:58:45;;;;;;;;;;;;;;;;;;5052132;28;19935;-71
2021/01/15 07:01:11;;;;;;;;;;;;;;;;;;5048853;28;20401;-66
2021/01/15 07:03:37;;;;;;;;;;;;;;;;;;5052877;28;19947;-69
2021/01/15 07:06:03;;;;;;;;;;;;;;;;;;5050512;28;19905;-69
2021/01/15 07:08:29;;;;;;;;;;;;;;;;;;5052653;28;19909;-70
2021/01/15 07:10:56;;;;;;;;;;;;;;;;;;5052637;28;19952;-70
2021/01/15 07:13:22;;;;;;;;;;;;;;;;;;5050467;28;19923;-71
2021/01/15 07:15:48;;;;;;;;;;;;;;;;;;5045033;28;20011;-63
2021/01/15 07:18:14;;;;;;;;;;;;;;;;;;5045298;28;19967;-70
2021/01/15 07:20:40;;;;;;;;;;;;;;;;;;5052164;28;19911;-69
2021/01/15 07:23:06;;;;;;;;;;;;;;;;;;5040922;28;19932;-68
2021/01/15 07:25:32;;;;;;;;;;;;;;;;;;5043394;28;19931;-70
2021/01/15 07:27:57;;;;;;;;;;;;;;;;;;5040449;28;19904;-69
2021/01/15 07:30:24;;;;;;;;;;;;;;;;;;5059968;28;20011;-69
2021/01/15 07:32:50;;;;;;;;;;;;;;;;;;5052551;28;20382;-65
2021/01/15 07:35:16;;;;;;;;;;;;;;;;;;5059677;28;19912;-68
2021/01/15 07:37:42;;;;;;;;;;;;;;;;;;5051114;28;20420;-65
2021/01/15 07:40:08;;;;;;;;;;;;;;;;;;5056137;28;19909;-71
2021/01/15 07:42:36;;;;;;;;;;;;;;;;;;5055486;28;20280;-70
2021/01/15 07:45:02;;;;;;;;;;;;;;;;;;5044088;28;19971;-65
2021/01/15 07:47:28;;;;;;;;;;;;;;;;;;5039198;28;19912;-66
2021/01/15 07:49:54;;;;;;;;;;;;;;;;;;5053145;28;19916;-65
2021/01/15 07:52:20;;;;;;;;;;;;;;;;;;5048938;28;19913;-71
2021/01/15 07:55:07;;;;;;;;;;;;;;;;;;5052941;28;19959;-65
2021/01/15 07:57:32;;;;;;;;;;;;;;;;;;5050493;28;19924;-68
2021/01/15 07:59:58;;;;;;;;;;;;;;;;;;5055640;28;19905;-67
2021/01/15 08:02:24;;;;;;;;;;;;;;;;;;5051090;28;19913;-70
2021/01/15 08:04:50;;;;;;;;;;;;;;;;;;5053975;28;21455;-68
2021/01/15 08:07:16;;;;;;;;;;;;;;;;;;5050797;28;19915;-66
2021/01/15 08:09:42;;;;;;;;;;;;;;;;;;5055495;28;19911;-71
2021/01/15 08:12:08;;;;;;;;;;;;;;;;;;5051750;28;19909;-70
2021/01/15 08:14:34;;;;;;;;;;;;;;;;;;5054891;28;19913;-70
2021/01/15 08:17:00;;;;;;;;;;;;;;;;;;5053189;28;19967;-69
2021/01/15 08:19:25;;;;;;;;;;;;;;;;;;5058319;28;19912;-67
2021/01/15 08:21:51;;;;;;;;;;;;;;;;;;5053441;28;20015;-68
2021/01/15 08:24:22;;;;;;;;;;;;;;;;;;5052686;28;19954;-68
2021/01/15 08:26:50;;;;;;;;;;;;;;;;;;5047725;28;19916;-64
2021/01/15 08:29:17;;;;;;;;;;;;;;;;;;5053766;28;19916;-71
2021/01/15 08:31:43;;;;;;;;;;;;;;;;;;5047318;28;19948;-71
2021/01/15 08:34:08;;;;;;;;;;;;;;;;;;5045162;28;19913;-71
2021/01/15 08:36:34;;;;;;;;;;;;;;;;;;5053157;28;19921;-67
2021/01/15 08:39:00;;;;;;;;;;;;;;;;;;5048914;28;19911;-70
2021/01/15 08:41:26;;;;;;;;;;;;;;;;;;5050054;28;19908;-71
2021/01/15 08:43:52;;;;;;;;;;;;;;;;;;5055261;28;19905;-69
2021/01/15 08:46:18;;;;;;;;;;;;;;;;;;5047738;28;20086;-65
2021/01/15 08:48:44;;;;;;;;;;;;;;;;;;5037436;28;19913;-70
2021/01/15 08:51:10;;;;;;;;;;;;;;;;;;5043486;28;19924;-70
2021/01/15 08:56:31;;;;;;;;;;;;;;;;;;5040035;28;20003;-68
2021/01/15 08:58:57;;;;;;;;;;;;;;;;;;5054488;28;20024;-65
2021/01/15 09:01:23;;;;;;;;;;;;;;;;;;5041253;28;19912;-70
2021/01/15 09:03:49;;;;;;;;;;;;;;;;;;5045657;28;19915;-69
2021/01/15 09:06:15;;;;;;;;;;;;;;;;;;5050853;28;19916;-65
2021/01/15 09:08:41;;;;;;;;;;;;;;;;;;5044452;28;19931;-67
2021/01/15 09:11:07;;;;;;;;;;;;;;;;;;5050074;28;19967;-65
2021/01/15 09:13:33;;;;;;;;;;;;;;;;;;5052919;28;19909;-65
2021/01/15 09:15:59;;;;;;;;;;;;;;;;;;5053258;28;19916;-66
2021/01/15 09:18:25;;;;;;;;;;;;;;;;;;5049822;28;19913;-65
2021/01/15 09:20:51;;;;;;;;;;;;;;;;;;5053200;28;19912;-65
2021/01/15 09:23:17;;;;;;;;;;;;;;;;;;5048343;28;20046;-64
2021/01/15 09:25:42;;;;;;;;;;;;;;;;;;5052561;28;19995;-65
2021/01/15 09:28:08;;;;;;;;;;;;;;;;;;5050746;28;20003;-63
2021/01/15 09:30:34;;;;;;;;;;;;;;;;;;5053729;28;19916;-63
2021/01/15 09:33:01;;;;;;;;;;;;;;;;;;5048695;28;19916;-63
2021/01/15 09:35:26;;;;;;;;;;;;;;;;;;5052431;28;19917;-63
2021/01/15 09:37:52;;;;;;;;;;;;;;;;;;5050066;28;19954;-64
2021/01/15 09:40:18;;;;;;;;;;;;;;;;;;5053335;28;19912;-65
2021/01/15 09:42:44;;;;;;;;;;;;;;;;;;5049349;28;19913;-65
2021/01/15 09:45:10;;;;;;;;;;;;;;;;;;5052165;28;19927;-64
2021/01/15 09:47:42;;;;;;;;;;;;;;;;;;5049292;28;19951;-64
2021/01/15 09:50:08;;;;;;;;;;;;;;;;;;5045010;28;19924;-63
2021/01/15 09:52:36;;;;;;;;;;;;;;;;;;5041843;28;19909;-64
2021/01/15 09:55:01;;;;;;;;;;;;;;;;;;5053351;28;19909;-64
2021/01/15 09:57:27;;;;;;;;;;;;;;;;;;5044332;28;19913;-66
2021/01/15 09:59:55;;;;;;;;;;;;;;;;;;5048831;28;20003;-64
2021/01/15 10:02:20;;;;;;;;;;;;;;;;;;5046501;28;19963;-65
2021/01/15 10:04:46;;;;;;;;;;;;;;;;;;5046326;28;19948;-64
2021/01/15 10:07:12;;;;;;;;;;;;;;;;;;5046610;28;19954;-64
2021/01/15 10:09:38;;;;;;;;;;;;;;;;;;5050976;28;19917;-64
2021/01/15 10:12:04;;;;;;;;;;;;;;;;;;5051589;28;19913;-64
2021/01/15 10:14:30;;;;;;;;;;;;;;;;;;5052433;28;19915;-64
2021/01/15 10:16:56;;;;;;;;;;;;;;;;;;5042156;28;20015;-64
2021/01/15 10:19:22;;;;;;;;;;;;;;;;;;5051257;28;20404;-64
2021/01/15 10:21:48;;;;;;;;;;;;;;;;;;5056673;28;19931;-64
2021/01/15 10:24:14;;;;;;;;;;;;;;;;;;5051767;28;19931;-64
2021/01/15 10:26:40;;;;;;;;;;;;;;;;;;5041644;28;19916;-64
2021/01/15 10:29:06;;;;;;;;;;;;;;;;;;5048776;28;19917;-64
2021/01/15 10:31:35;;;;;;;;;;;;;;;;;;5048805;28;19908;-64
2021/01/15 10:34:01;;;;;;;;;;;;;;;;;;5050630;28;20006;-64
2021/01/15 10:36:26;;;;;;;;;;;;;;;;;;5046562;28;20017;-64
2021/01/15 10:38:53;;;;;;;;;;;;;;;;;;5053054;28;19951;-65
2021/01/15 10:41:19;;;;;;;;;;;;;;;;;;5051881;28;19908;-64
2021/01/15 10:43:44;;;;;;;;;;;;;;;;;;5057657;28;19916;-65
2021/01/15 10:46:10;;;;;;;;;;;;;;;;;;5049879;28;19932;-64
2021/01/15 10:48:36;;;;;;;;;;;;;;;;;;5058599;28;19935;-64
2021/01/15 10:51:02;;;;;;;;;;;;;;;;;;5048931;28;19916;-65
2021/01/15 10:53:28;;;;;;;;;;;;;;;;;;5045069;28;19909;-64
2021/01/15 10:55:54;;;;;;;;;;;;;;;;;;5047560;28;19920;-64
2021/01/15 10:58:20;;;;;;;;;;;;;;;;;;5047299;28;19912;-64
2021/01/15 11:00:46;;;;;;;;;;;;;;;;;;5055721;28;19963;-67
2021/01/15 11:03:12;;;;;;;;;;;;;;;;;;5041839;28;19932;-64
2021/01/15 11:05:38;;;;;;;;;;;;;;;;;;5051603;28;19912;-65
2021/01/15 11:08:04;;;;;;;;;;;;;;;;;;5053743;28;19995;-64
2021/01/15 11:10:29;;;;;;;;;;;;;;;;;;5050688;28;19909;-64
2021/01/15 11:12:55;;;;;;;;;;;;;;;;;;5049470;28;19932;-65
2021/01/15 11:15:22;;;;;;;;;;;;;;;;;;5049895;28;19921;-65
2021/01/15 11:17:48;;;;;;;;;;;;;;;;;;5042604;28;19912;-66
2021/01/15 11:20:14;;;;;;;;;;;;;;;;;;5051498;28;19917;-65
2021/01/15 11:22:40;;;;;;;;;;;;;;;;;;5044284;28;19916;-65
2021/01/15 11:25:06;;;;;;;;;;;;;;;;;;5051261;28;19916;-65
2021/01/15 11:27:32;;;;;;;;;;;;;;;;;;5047369;28;19954;-65
2021/01/15 11:29:57;;;;;;;;;;;;;;;;;;5049919;28;20019;-65
2021/01/15 11:32:23;;;;;;;;;;;;;;;;;;5049864;28;19931;-65
2021/01/15 11:34:50;;;;;;;;;;;;;;;;;;5049929;28;19912;-65
2021/01/15 11:37:17;;;;;;;;;;;;;;;;;;5050335;28;20361;-65
2021/01/15 11:39:43;;;;;;;;;;;;;;;;;;5045876;28;20070;-66
2021/01/15 11:42:09;;;;;;;;;;;;;;;;;;5045946;28;19952;-66
2021/01/15 11:44:35;;;;;;;;;;;;;;;;;;5053478;28;19948;-67
2021/01/15 11:47:01;;;;;;;;;;;;;;;;;;5037887;28;19909;-66
2021/01/15 11:49:27;;;;;;;;;;;;;;;;;;5046493;28;19935;-66
2021/01/15 11:51:53;;;;;;;;;;;;;;;;;;5047536;28;19973;-67
2021/01/15 11:54:18;;;;;;;;;;;;;;;;;;5045987;28;19913;-68
2021/01/15 11:56:44;;;;;;;;;;;;;;;;;;5036646;28;19925;-65
2021/01/15 11:59:10;;;;;;;;;;;;;;;;;;5039525;28;20324;-65
2021/01/15 12:01:36;;;;;;;;;;;;;;;;;;5042873;28;20012;-66
2021/01/15 12:04:02;;;;;;;;;;;;;;;;;;5046162;28;19963;-68
2021/01/15 12:06:28;;;;;;;;;;;;;;;;;;5041080;28;19916;-67
2021/01/15 12:08:54;;;;;;;;;;;;;;;;;;5052600;28;19912;-67
2021/01/15 12:11:20;;;;;;;;;;;;;;;;;;5050235;28;19923;-66
2021/01/15 12:13:46;;;;;;;;;;;;;;;;;;5053217;28;19915;-66
2021/01/15 12:16:13;;;;;;;;;;;;;;;;;;5049484;28;19920;-65
2021/01/15 12:18:39;;;;;;;;;;;;;;;;;;5052403;28;20003;-65
2021/01/15 12:21:05;;;;;;;;;;;;;;;;;;5047262;28;19948;-65
2021/01/15 12:23:31;;;;;;;;;;;;;;;;;;5055426;28;19912;-66
2021/01/15 12:25:57;;;;;;;;;;;;;;;;;;5052991;28;19932;-70
2021/01/15 12:28:23;;;;;;;;;;;;;;;;;;5041289;28;19909;-70
2021/01/15 12:30:49;;;;;;;;;;;;;;;;;;5054137;28;19909;-68
2021/01/15 12:33:15;;;;;;;;;;;;;;;;;;5056238;28;20426;-66
2021/01/15 12:35:40;;;;;;;;;;;;;;;;;;5054450;28;19913;-66
2021/01/15 12:38:06;;;;;;;;;;;;;;;;;;5048500;28;19912;-65
2021/01/15 12:40:32;;;;;;;;;;;;;;;;;;5046079;28;20337;-66
2021/01/15 12:42:58;;;;;;;;;;;;;;;;;;5046138;28;20365;-66
2021/01/15 12:45:24;;;;;;;;;;;;;;;;;;5053591;28;20331;-68
2021/01/15 12:47:50;;;;;;;;;;;;;;;;;;5052814;28;19912;-67
2021/01/15 12:50:16;;;;;;;;;;;;;;;;;;5054061;28;19948;-71
2021/01/15 12:52:42;;;;;;;;;;;;;;;;;;5052395;28;19962;-67
2021/01/15 12:55:08;;;;;;;;;;;;;;;;;;5041110;28;19912;-66
2021/01/15 12:57:33;;;;;;;;;;;;;;;;;;5043860;28;19912;-66
2021/01/15 12:59:59;;;;;;;;;;;;;;;;;;5047213;28;19978;-67
2021/01/15 13:02:25;;;;;;;;;;;;;;;;;;5048187;28;20000;-71
2021/01/15 13:04:51;;;;;;;;;;;;;;;;;;5052749;28;19962;-67
2021/01/15 13:07:17;;;;;;;;;;;;;;;;;;5055538;28;20411;-68
2021/01/15 13:09:43;;;;;;;;;;;;;;;;;;5053134;28;19957;-65
2021/01/15 13:12:09;;;;;;;;;;;;;;;;;;5052050;28;19908;-66
2021/01/15 13:14:34;;;;;;;;;;;;;;;;;;5051280;28;19963;-67
2021/01/15 13:17:00;;;;;;;;;;;;;;;;;;5044357;28;20078;-64
2021/01/15 13:19:26;;;;;;;;;;;;;;;;;;5042696;28;20292;-65
2021/01/15 13:21:52;;;;;;;;;;;;;;;;;;5046565;28;19908;-64
2021/01/15 13:24:18;;;;;;;;;;;;;;;;;;5051742;28;19915;-65
2021/01/15 13:26:44;;;;;;;;;;;;;;;;;;5051665;28;19909;-66
2021/01/15 13:29:10;;;;;;;;;;;;;;;;;;5052676;28;19944;-66
2021/01/15 13:31:36;;;;;;;;;;;;;;;;;;5046063;28;19979;-68
2021/01/15 13:34:01;;;;;;;;;;;;;;;;;;5052598;28;19919;-65
2021/01/15 13:36:27;;;;;;;;;;;;;;;;;;5050673;28;20360;-68
2021/01/15 13:38:53;;;;;;;;;;;;;;;;;;5045968;28;20285;-68
2021/01/15 13:41:19;;;;;;;;;;;;;;;;;;5052320;28;21721;-66
2021/01/15 13:43:45;;;;;;;;;;;;;;;;;;5053559;28;19909;-65
2021/01/15 13:46:11;;;;;;;;;;;;;;;;;;5049535;28;20269;-67
2021/01/15 13:48:38;;;;;;;;;;;;;;;;;;5050903;28;19986;-65
2021/01/15 13:51:12;;;;;;;;;;;;;;;;;;5048782;28;20359;-67
2021/01/15 13:53:38;;;;;;;;;;;;;;;;;;5047070;28;19913;-70
2021/01/15 13:56:04;;;;;;;;;;;;;;;;;;5048440;28;20007;-67
2021/01/15 13:58:30;;;;;;;;;;;;;;;;;;5047940;28;20373;-68
2021/01/15 14:00:55;;;;;;;;;;;;;;;;;;5052235;28;21271;-71
2021/01/15 14:03:21;;;;;;;;;;;;;;;;;;5050547;28;19916;-65
2021/01/15 14:05:50;;;;;;;;;;;;;;;;;;5053308;28;19916;-66
2021/01/15 14:08:16;;;;;;;;;;;;;;;;;;5046404;28;19916;-66
2021/01/15 14:10:42;;;;;;;;;;;;;;;;;;5051359;28;19916;-66
2021/01/15 14:13:11;;;;;;;;;;;;;;;;;;5045352;28;20381;-66
2021/01/15 14:15:37;;;;;;;;;;;;;;;;;;5053228;28;19919;-65
2021/01/15 14:18:03;;;;;;;;;;;;;;;;;;5042735;28;19921;-66
2021/01/15 14:20:29;;;;;;;;;;;;;;;;;;5041884;28;19909;-67
2021/01/15 14:22:55;;;;;;;;;;;;;;;;;;5046080;28;19959;-64
2021/01/15 14:25:21;;;;;;;;;;;;;;;;;;5050656;28;19912;-64
2021/01/15 14:27:46;;;;;;;;;;;;;;;;;;5042340;28;19916;-64
2021/01/15 14:30:12;;;;;;;;;;;;;;;;;;5051975;28;19909;-64
2021/01/15 14:32:38;;;;;;;;;;;;;;;;;;5047353;28;19908;-63
2021/01/15 14:35:04;;;;;;;;;;;;;;;;;;5049535;28;20019;-64
2021/01/15 14:37:30;;;;;;;;;;;;;;;;;;5043270;28;20375;-63
2021/01/15 14:39:56;;;;;;;;;;;;;;;;;;5051779;28;19908;-64
2021/01/15 14:42:22;;;;;;;;;;;;;;;;;;5050046;28;19917;-64
2021/01/15 14:44:48;;;;;;;;;;;;;;;;;;5047991;28;19921;-65
2021/01/15 14:47:14;;;;;;;;;;;;;;;;;;5049652;28;19920;-64
2021/01/15 14:49:40;;;;;;;;;;;;;;;;;;5050672;28;19916;-63
2021/01/15 14:52:06;;;;;;;;;;;;;;;;;;5048618;28;20262;-64
2021/01/15 14:54:32;;;;;;;;;;;;;;;;;;5051651;28;19946;-64
2021/01/15 14:56:58;;;;;;;;;;;;;;;;;;5047301;28;19964;-64
2021/01/15 14:59:24;;;;;;;;;;;;;;;;;;5050214;28;19909;-63
2021/01/15 15:01:50;;;;;;;;;;;;;;;;;;5047495;28;19919;-64
2021/01/15 15:04:16;;;;;;;;;;;;;;;;;;5047347;28;19909;-63
2021/01/15 15:06:42;;;;;;;;;;;;;;;;;;5048486;28;20030;-65
2021/01/15 15:09:08;;;;;;;;;;;;;;;;;;5058413;28;19912;-66
2021/01/15 15:11:34;;;;;;;;;;;;;;;;;;5050135;28;19915;-65
2021/01/15 15:13:59;;;;;;;;;;;;;;;;;;5049724;28;19909;-63
2021/01/15 15:16:25;;;;;;;;;;;;;;;;;;5047083;28;19927;-63
2021/01/15 15:18:51;;;;;;;;;;;;;;;;;;5058518;28;19938;-63
2021/01/15 15:21:17;;;;;;;;;;;;;;;;;;5039119;28;20427;-65
2021/01/15 15:23:43;;;;;;;;;;;;;;;;;;5034940;28;19916;-65
2021/01/15 15:26:09;;;;;;;;;;;;;;;;;;5051763;28;19904;-65
2021/01/15 15:28:35;;;;;;;;;;;;;;;;;;5055098;28;19912;-64
2021/01/15 15:31:01;;;;;;;;;;;;;;;;;;5050009;28;19908;-65
2021/01/15 15:33:27;;;;;;;;;;;;;;;;;;5046185;28;20211;-66
2021/01/15 15:35:53;;;;;;;;;;;;;;;;;;5039410;28;19916;-64
2021/01/15 15:38:19;;;;;;;;;;;;;;;;;;5049000;28;19909;-64
2021/01/15 15:40:45;;;;;;;;;;;;;;;;;;5047707;28;19975;-64
2021/01/15 15:43:11;;;;;;;;;;;;;;;;;;5049052;28;19917;-65
2021/01/15 15:45:38;;;;;;;;;;;;;;;;;;5055506;28;19964;-64
2021/01/15 15:48:04;;;;;;;;;;;;;;;;;;5048482;28;19921;-64
2021/01/15 15:50:31;;;;;;;;;;;;;;;;;;5055923;28;19909;-65
2021/01/15 15:52:56;;;;;;;;;;;;;;;;;;5051820;28;19915;-68
2021/01/15 15:55:22;;;;;;;;;;;;;;;;;;5055067;28;20035;-70
2021/01/15 15:57:48;;;;;;;;;;;;;;;;;;5048560;28;20210;-64
2021/01/15 16:00:14;;;;;;;;;;;;;;;;;;5051281;28;19912;-65
2021/01/15 16:02:40;;;;;;;;;;;;;;;;;;5052490;28;19923;-67
2021/01/15 16:05:06;;;;;;;;;;;;;;;;;;5054969;28;19908;-68
2021/01/15 16:07:32;;;;;;;;;;;;;;;;;;5052639;28;19913;-66
2021/01/15 16:09:57;;;;;;;;;;;;;;;;;;5054986;28;19950;-65
2021/01/15 16:12:23;;;;;;;;;;;;;;;;;;5052253;28;19912;-66
2021/01/15 16:14:49;;;;;;;;;;;;;;;;;;5058425;28;19928;-65
2021/01/15 16:17:15;;;;;;;;;;;;;;;;;;5049405;28;19921;-66
2021/01/15 16:19:41;;;;;;;;;;;;;;;;;;5049685;28;19921;-71
2021/01/15 16:22:07;;;;;;;;;;;;;;;;;;5046187;28;20056;-70
2021/01/15 16:24:33;;;;;;;;;;;;;;;;;;5047990;28;19909;-67
2021/01/15 16:26:59;;;;;;;;;;;;;;;;;;5044965;28;20372;-68
2021/01/15 16:29:24;;;;;;;;;;;;;;;;;;5051512;28;20391;-65
2021/01/15 16:31:50;;;;;;;;;;;;;;;;;;5049570;28;19913;-65
2021/01/15 16:34:16;;;;;;;;;;;;;;;;;;5051892;28;19913;-67
2021/01/15 16:36:42;;;;;;;;;;;;;;;;;;5050906;28;20003;-66
2021/01/15 16:39:08;;;;;;;;;;;;;;;;;;5047406;28;19912;-65
2021/01/15 16:41:34;;;;;;;;;;;;;;;;;;5048993;28;19928;-67
2021/01/15 16:44:00;;;;;;;;;;;;;;;;;;5054860;28;20011;-71
2021/01/15 16:46:26;;;;;;;;;;;;;;;;;;5052831;28;19972;-70